Главная страница
METAR-TAF:

METAR-TAF

Аэропорты :

Молде, Норвегия

широта: 62-45N, долгота: 007-16E, высота над уровнем моря: 0 м

Текущие метеонаблюдения

Эта сводка был подготовлена 12 минут назад, в 11:50 UTC
Ветер 9 Узел от восточный, изменяющийся между северо-восточный и восточно-юго-восточный
Температура 5°C
Влажность 60%
Давление 1009 hPa
Видимость 10 км и более
небольшая облачность на высоте 6000 фута
Рассеянная облачность на высоте 10000 фута

METAR: ENML 191150Z 08009KT 050V110 9999 FEW060 BKN100 05/M02 Q1009

Время: 13:02 (12:02 UTC)

Прогноз

Эта сводка был подготовлена 1 час и 2 минут назад, в 11:00 UTC
Прогноз действительный с 19-го 12 UTC до 19-го 21 UTC
Ветер 8 Узел от северо-восточный
Видимость 10 км и более
небольшая облачность на высоте 5000 фута
Рассеянная облачность на высоте 10000 фута

TAF: ENML 191100Z 1912/1921 05008KT 9999 FEW050 BKN100

Метеонаблюдения и прогнозы для более 4000 аэропортов (сводки METAR и TAF).

Имеющиеся станции представлены на карте желтыми и красными точками.

Чтобы увидеть название станции, наведите на нее мышь.

Затем щелкните, чтобы увидеть метеонаблюдения и метеопрогнозы.

Управление картой: чтобы увеличить масштаб, щелкните зеленые кнопки с черным крестиком; чтобы уменьшить масштаб, щелкните зеленую кнопку с тире; для просмотра соседних карт щелкайте зеленые стрелки.


METAR-TAF: